sensor_id;sensor_type;location;lat;lon;timestamp;P1;durP1;ratioP1;P2;durP2;ratioP2
7669;SDS011;3877;42.562;27.636;2023-01-15T00:01:17;20.37;;;10.87;;
7669;SDS011;3877;42.562;27.636;2023-01-15T00:03:45;24.97;;;11.57;;
7669;SDS011;3877;42.562;27.636;2023-01-15T00:06:13;21.97;;;11.67;;
7669;SDS011;3877;42.562;27.636;2023-01-15T00:08:40;24.13;;;11.60;;
7669;SDS011;3877;42.562;27.636;2023-01-15T00:11:07;19.70;;;11.60;;
7669;SDS011;3877;42.562;27.636;2023-01-15T00:13:33;21.53;;;11.07;;
7669;SDS011;3877;42.562;27.636;2023-01-15T00:16:04;21.57;;;11.17;;
7669;SDS011;3877;42.562;27.636;2023-01-15T00:18:31;21.37;;;11.60;;
7669;SDS011;3877;42.562;27.636;2023-01-15T00:20:59;18.67;;;11.57;;
7669;SDS011;3877;42.562;27.636;2023-01-15T00:23:26;22.80;;;12.87;;
7669;SDS011;3877;42.562;27.636;2023-01-15T00:26:12;21.67;;;12.10;;
7669;SDS011;3877;42.562;27.636;2023-01-15T00:28:56;20.70;;;12.13;;
7669;SDS011;3877;42.562;27.636;2023-01-15T00:31:23;20.20;;;10.93;;
7669;SDS011;3877;42.562;27.636;2023-01-15T00:33:50;21.67;;;12.37;;
7669;SDS011;3877;42.562;27.636;2023-01-15T00:36:18;20.97;;;12.40;;
7669;SDS011;3877;42.562;27.636;2023-01-15T00:38:45;24.97;;;12.83;;
7669;SDS011;3877;42.562;27.636;2023-01-15T00:41:11;20.73;;;12.57;;
7669;SDS011;3877;42.562;27.636;2023-01-15T00:43:38;25.87;;;12.57;;
7669;SDS011;3877;42.562;27.636;2023-01-15T00:46:05;27.57;;;12.70;;
7669;SDS011;3877;42.562;27.636;2023-01-15T00:48:33;23.70;;;12.87;;
7669;SDS011;3877;42.562;27.636;2023-01-15T00:50:59;23.63;;;13.17;;
7669;SDS011;3877;42.562;27.636;2023-01-15T00:53:28;24.40;;;13.03;;
7669;SDS011;3877;42.562;27.636;2023-01-15T00:55:54;27.67;;;15.17;;
7669;SDS011;3877;42.562;27.636;2023-01-15T00:58:21;23.47;;;13.47;;
7669;SDS011;3877;42.562;27.636;2023-01-15T01:00:51;26.33;;;14.50;;
7669;SDS011;3877;42.562;27.636;2023-01-15T01:03:18;24.60;;;14.20;;
7669;SDS011;3877;42.562;27.636;2023-01-15T01:05:45;21.63;;;13.00;;
7669;SDS011;3877;42.562;27.636;2023-01-15T01:08:12;22.97;;;13.33;;
7669;SDS011;3877;42.562;27.636;2023-01-15T01:10:40;21.67;;;13.30;;
7669;SDS011;3877;42.562;27.636;2023-01-15T01:13:07;26.07;;;13.03;;
7669;SDS011;3877;42.562;27.636;2023-01-15T01:15:34;24.30;;;13.73;;
7669;SDS011;3877;42.562;27.636;2023-01-15T01:18:02;24.17;;;13.40;;
7669;SDS011;3877;42.562;27.636;2023-01-15T01:20:29;21.87;;;12.67;;
7669;SDS011;3877;42.562;27.636;2023-01-15T01:22:56;25.23;;;12.97;;
7669;SDS011;3877;42.562;27.636;2023-01-15T01:25:23;20.93;;;12.10;;
7669;SDS011;3877;42.562;27.636;2023-01-15T01:27:51;21.13;;;12.03;;
7669;SDS011;3877;42.562;27.636;2023-01-15T01:30:18;21.17;;;10.80;;
7669;SDS011;3877;42.562;27.636;2023-01-15T01:32:45;19.87;;;11.47;;
7669;SDS011;3877;42.562;27.636;2023-01-15T01:35:12;20.00;;;10.77;;
7669;SDS011;3877;42.562;27.636;2023-01-15T01:37:38;18.70;;;10.67;;
7669;SDS011;3877;42.562;27.636;2023-01-15T01:40:05;15.10;;;10.10;;
7669;SDS011;3877;42.562;27.636;2023-01-15T01:42:32;17.20;;;9.97;;
7669;SDS011;3877;42.562;27.636;2023-01-15T01:45:02;16.33;;;10.17;;
7669;SDS011;3877;42.562;27.636;2023-01-15T01:47:30;17.63;;;11.17;;
7669;SDS011;3877;42.562;27.636;2023-01-15T01:49:58;14.57;;;9.83;;
7669;SDS011;3877;42.562;27.636;2023-01-15T01:52:26;14.93;;;9.97;;
7669;SDS011;3877;42.562;27.636;2023-01-15T01:54:54;15.90;;;10.20;;
7669;SDS011;3877;42.562;27.636;2023-01-15T01:57:21;15.93;;;9.80;;
7669;SDS011;3877;42.562;27.636;2023-01-15T01:59:48;14.93;;;9.30;;
7669;SDS011;3877;42.562;27.636;2023-01-15T02:02:17;17.77;;;9.43;;
7669;SDS011;3877;42.562;27.636;2023-01-15T02:04:45;20.40;;;10.13;;
7669;SDS011;3877;42.562;27.636;2023-01-15T02:07:12;17.87;;;11.33;;
7669;SDS011;3877;42.562;27.636;2023-01-15T02:09:39;20.40;;;11.10;;
7669;SDS011;3877;42.562;27.636;2023-01-15T02:12:08;17.13;;;10.30;;
7669;SDS011;3877;42.562;27.636;2023-01-15T02:14:36;18.13;;;10.70;;
7669;SDS011;3877;42.562;27.636;2023-01-15T02:17:05;20.90;;;11.60;;
7669;SDS011;3877;42.562;27.636;2023-01-15T02:19:39;17.57;;;11.33;;
7669;SDS011;3877;42.562;27.636;2023-01-15T02:22:25;19.00;;;11.53;;
7669;SDS011;3877;42.562;27.636;2023-01-15T02:24:56;19.00;;;10.93;;
7669;SDS011;3877;42.562;27.636;2023-01-15T02:27:27;19.07;;;11.47;;
7669;SDS011;3877;42.562;27.636;2023-01-15T02:29:55;18.90;;;11.63;;
7669;SDS011;3877;42.562;27.636;2023-01-15T02:32:27;18.60;;;10.83;;
7669;SDS011;3877;42.562;27.636;2023-01-15T02:34:55;17.83;;;11.37;;
7669;SDS011;3877;42.562;27.636;2023-01-15T02:37:25;18.00;;;10.73;;
7669;SDS011;3877;42.562;27.636;2023-01-15T02:39:52;17.83;;;11.03;;
7669;SDS011;3877;42.562;27.636;2023-01-15T02:42:20;16.77;;;10.03;;
7669;SDS011;3877;42.562;27.636;2023-01-15T02:44:50;20.93;;;11.40;;
7669;SDS011;3877;42.562;27.636;2023-01-15T02:47:19;16.13;;;9.33;;
7669;SDS011;3877;42.562;27.636;2023-01-15T02:49:47;15.60;;;9.97;;
7669;SDS011;3877;42.562;27.636;2023-01-15T02:52:16;17.07;;;10.80;;
7669;SDS011;3877;42.562;27.636;2023-01-15T02:54:46;21.20;;;11.30;;
7669;SDS011;3877;42.562;27.636;2023-01-15T02:57:14;18.47;;;10.80;;
7669;SDS011;3877;42.562;27.636;2023-01-15T02:59:42;24.13;;;11.50;;
7669;SDS011;3877;42.562;27.636;2023-01-15T03:02:12;20.63;;;12.20;;
7669;SDS011;3877;42.562;27.636;2023-01-15T03:04:40;19.27;;;11.90;;
7669;SDS011;3877;42.562;27.636;2023-01-15T03:07:11;20.17;;;12.10;;
7669;SDS011;3877;42.562;27.636;2023-01-15T03:09:40;25.67;;;12.53;;
7669;SDS011;3877;42.562;27.636;2023-01-15T03:12:10;25.33;;;12.97;;
7669;SDS011;3877;42.562;27.636;2023-01-15T03:14:41;26.27;;;14.33;;
7669;SDS011;3877;42.562;27.636;2023-01-15T03:17:13;23.37;;;13.50;;
7669;SDS011;3877;42.562;27.636;2023-01-15T03:19:42;26.30;;;13.50;;
7669;SDS011;3877;42.562;27.636;2023-01-15T03:22:12;22.17;;;13.20;;
7669;SDS011;3877;42.562;27.636;2023-01-15T03:24:43;26.60;;;14.17;;
7669;SDS011;3877;42.562;27.636;2023-01-15T03:27:11;28.93;;;15.30;;
7669;SDS011;3877;42.562;27.636;2023-01-15T03:29:40;28.90;;;15.17;;
7669;SDS011;3877;42.562;27.636;2023-01-15T03:32:08;27.17;;;14.60;;
7669;SDS011;3877;42.562;27.636;2023-01-15T03:34:41;30.27;;;15.53;;
7669;SDS011;3877;42.562;27.636;2023-01-15T03:37:08;28.73;;;14.47;;
7669;SDS011;3877;42.562;27.636;2023-01-15T03:39:34;25.43;;;14.40;;
7669;SDS011;3877;42.562;27.636;2023-01-15T03:42:04;26.70;;;15.13;;
7669;SDS011;3877;42.562;27.636;2023-01-15T03:44:36;28.87;;;15.97;;
7669;SDS011;3877;42.562;27.636;2023-01-15T03:47:09;30.53;;;16.67;;
7669;SDS011;3877;42.562;27.636;2023-01-15T03:49:43;29.80;;;16.10;;
7669;SDS011;3877;42.562;27.636;2023-01-15T03:52:14;35.43;;;17.57;;
7669;SDS011;3877;42.562;27.636;2023-01-15T03:54:43;31.30;;;18.03;;
7669;SDS011;3877;42.562;27.636;2023-01-15T03:57:14;30.93;;;17.60;;
7669;SDS011;3877;42.562;27.636;2023-01-15T03:59:44;28.70;;;17.20;;
7669;SDS011;3877;42.562;27.636;2023-01-15T04:02:14;33.20;;;15.53;;
7669;SDS011;3877;42.562;27.636;2023-01-15T04:04:43;25.13;;;14.60;;
7669;SDS011;3877;42.562;27.636;2023-01-15T04:07:11;23.47;;;13.67;;
7669;SDS011;3877;42.562;27.636;2023-01-15T04:09:38;24.60;;;13.57;;
7669;SDS011;3877;42.562;27.636;2023-01-15T04:12:05;26.40;;;15.07;;
7669;SDS011;3877;42.562;27.636;2023-01-15T04:14:32;23.37;;;14.13;;
7669;SDS011;3877;42.562;27.636;2023-01-15T04:16:59;22.57;;;13.13;;
7669;SDS011;3877;42.562;27.636;2023-01-15T04:19:26;21.77;;;13.00;;
7669;SDS011;3877;42.562;27.636;2023-01-15T04:21:54;18.70;;;11.57;;
7669;SDS011;3877;42.562;27.636;2023-01-15T04:24:21;25.53;;;14.00;;
7669;SDS011;3877;42.562;27.636;2023-01-15T04:26:48;22.10;;;13.90;;
7669;SDS011;3877;42.562;27.636;2023-01-15T04:29:15;20.20;;;12.97;;
7669;SDS011;3877;42.562;27.636;2023-01-15T04:31:42;18.53;;;10.90;;
7669;SDS011;3877;42.562;27.636;2023-01-15T04:34:08;17.50;;;10.37;;
7669;SDS011;3877;42.562;27.636;2023-01-15T04:36:35;15.83;;;10.50;;
7669;SDS011;3877;42.562;27.636;2023-01-15T04:39:04;12.47;;;8.47;;
7669;SDS011;3877;42.562;27.636;2023-01-15T04:41:31;14.30;;;9.13;;
7669;SDS011;3877;42.562;27.636;2023-01-15T04:44:20;14.03;;;9.50;;
7669;SDS011;3877;42.562;27.636;2023-01-15T04:46:52;13.03;;;8.70;;
7669;SDS011;3877;42.562;27.636;2023-01-15T04:49:18;12.23;;;8.60;;
7669;SDS011;3877;42.562;27.636;2023-01-15T04:51:46;14.33;;;8.40;;
7669;SDS011;3877;42.562;27.636;2023-01-15T04:54:15;13.57;;;8.33;;
7669;SDS011;3877;42.562;27.636;2023-01-15T04:56:42;11.53;;;8.10;;
7669;SDS011;3877;42.562;27.636;2023-01-15T04:59:09;12.13;;;8.20;;
7669;SDS011;3877;42.562;27.636;2023-01-15T05:01:36;10.63;;;6.67;;
7669;SDS011;3877;42.562;27.636;2023-01-15T05:04:03;11.13;;;7.80;;
7669;SDS011;3877;42.562;27.636;2023-01-15T05:06:31;10.93;;;8.13;;
7669;SDS011;3877;42.562;27.636;2023-01-15T05:08:58;11.53;;;7.77;;
7669;SDS011;3877;42.562;27.636;2023-01-15T05:11:26;10.77;;;7.30;;
7669;SDS011;3877;42.562;27.636;2023-01-15T05:13:53;11.70;;;8.20;;
7669;SDS011;3877;42.562;27.636;2023-01-15T05:16:21;12.70;;;8.17;;
7669;SDS011;3877;42.562;27.636;2023-01-15T05:18:49;11.57;;;8.00;;
7669;SDS011;3877;42.562;27.636;2023-01-15T05:21:17;11.67;;;8.30;;
7669;SDS011;3877;42.562;27.636;2023-01-15T05:23:46;12.43;;;8.60;;
7669;SDS011;3877;42.562;27.636;2023-01-15T05:26:12;11.27;;;8.20;;
7669;SDS011;3877;42.562;27.636;2023-01-15T05:28:42;12.50;;;8.53;;
7669;SDS011;3877;42.562;27.636;2023-01-15T05:31:10;13.53;;;9.13;;
7669;SDS011;3877;42.562;27.636;2023-01-15T05:33:37;12.03;;;8.47;;
7669;SDS011;3877;42.562;27.636;2023-01-15T05:36:05;11.23;;;8.17;;
7669;SDS011;3877;42.562;27.636;2023-01-15T05:38:33;16.87;;;9.07;;
7669;SDS011;3877;42.562;27.636;2023-01-15T05:41:01;14.43;;;9.30;;
7669;SDS011;3877;42.562;27.636;2023-01-15T05:43:28;14.90;;;8.87;;
7669;SDS011;3877;42.562;27.636;2023-01-15T05:45:57;21.20;;;9.53;;
7669;SDS011;3877;42.562;27.636;2023-01-15T05:48:26;17.10;;;8.97;;
7669;SDS011;3877;42.562;27.636;2023-01-15T05:50:53;14.27;;;9.23;;
7669;SDS011;3877;42.562;27.636;2023-01-15T05:53:20;20.43;;;9.43;;
7669;SDS011;3877;42.562;27.636;2023-01-15T05:55:47;19.87;;;10.00;;
7669;SDS011;3877;42.562;27.636;2023-01-15T05:58:13;18.07;;;9.00;;
7669;SDS011;3877;42.562;27.636;2023-01-15T06:00:40;14.00;;;10.00;;
7669;SDS011;3877;42.562;27.636;2023-01-15T06:03:09;17.67;;;9.80;;
7669;SDS011;3877;42.562;27.636;2023-01-15T06:05:36;12.80;;;9.10;;
7669;SDS011;3877;42.562;27.636;2023-01-15T06:08:02;14.43;;;9.83;;
7669;SDS011;3877;42.562;27.636;2023-01-15T06:10:29;13.40;;;9.87;;
7669;SDS011;3877;42.562;27.636;2023-01-15T06:12:56;14.27;;;9.50;;
7669;SDS011;3877;42.562;27.636;2023-01-15T06:15:23;13.37;;;9.33;;
7669;SDS011;3877;42.562;27.636;2023-01-15T06:17:50;12.67;;;9.20;;
7669;SDS011;3877;42.562;27.636;2023-01-15T06:20:18;13.47;;;10.23;;
7669;SDS011;3877;42.562;27.636;2023-01-15T06:22:45;15.57;;;10.87;;
7669;SDS011;3877;42.562;27.636;2023-01-15T06:25:14;16.40;;;11.30;;
7669;SDS011;3877;42.562;27.636;2023-01-15T06:27:41;15.23;;;10.53;;
7669;SDS011;3877;42.562;27.636;2023-01-15T06:30:09;15.17;;;10.97;;
7669;SDS011;3877;42.562;27.636;2023-01-15T06:32:36;17.37;;;11.40;;
7669;SDS011;3877;42.562;27.636;2023-01-15T06:35:03;14.83;;;11.30;;
7669;SDS011;3877;42.562;27.636;2023-01-15T06:37:32;14.27;;;10.60;;
7669;SDS011;3877;42.562;27.636;2023-01-15T06:39:59;15.57;;;10.70;;
7669;SDS011;3877;42.562;27.636;2023-01-15T06:42:26;15.07;;;10.23;;
7669;SDS011;3877;42.562;27.636;2023-01-15T06:45:10;14.63;;;9.97;;
7669;SDS011;3877;42.562;27.636;2023-01-15T06:47:54;24.83;;;15.80;;
7669;SDS011;3877;42.562;27.636;2023-01-15T06:50:22;16.27;;;10.80;;
7669;SDS011;3877;42.562;27.636;2023-01-15T06:52:51;16.23;;;10.90;;
7669;SDS011;3877;42.562;27.636;2023-01-15T06:55:18;14.57;;;10.47;;
7669;SDS011;3877;42.562;27.636;2023-01-15T06:57:45;13.03;;;9.67;;
7669;SDS011;3877;42.562;27.636;2023-01-15T07:00:12;14.37;;;10.63;;
7669;SDS011;3877;42.562;27.636;2023-01-15T07:02:39;16.23;;;10.47;;
7669;SDS011;3877;42.562;27.636;2023-01-15T07:05:07;18.53;;;13.50;;
7669;SDS011;3877;42.562;27.636;2023-01-15T07:07:33;13.33;;;9.97;;
7669;SDS011;3877;42.562;27.636;2023-01-15T07:10:02;13.50;;;9.37;;
7669;SDS011;3877;42.562;27.636;2023-01-15T07:12:29;15.83;;;11.70;;
7669;SDS011;3877;42.562;27.636;2023-01-15T07:14:55;13.50;;;9.93;;
7669;SDS011;3877;42.562;27.636;2023-01-15T07:17:22;11.37;;;8.30;;
7669;SDS011;3877;42.562;27.636;2023-01-15T07:19:49;11.30;;;8.63;;
7669;SDS011;3877;42.562;27.636;2023-01-15T07:22:16;13.07;;;9.43;;
7669;SDS011;3877;42.562;27.636;2023-01-15T07:24:43;12.70;;;9.27;;
7669;SDS011;3877;42.562;27.636;2023-01-15T07:27:11;13.90;;;9.73;;
7669;SDS011;3877;42.562;27.636;2023-01-15T07:29:38;14.07;;;10.03;;
7669;SDS011;3877;42.562;27.636;2023-01-15T07:32:05;13.10;;;9.47;;
7669;SDS011;3877;42.562;27.636;2023-01-15T07:34:32;16.53;;;11.73;;
7669;SDS011;3877;42.562;27.636;2023-01-15T07:36:59;14.70;;;10.00;;
7669;SDS011;3877;42.562;27.636;2023-01-15T07:39:26;16.10;;;9.93;;
7669;SDS011;3877;42.562;27.636;2023-01-15T07:41:53;15.47;;;10.40;;
7669;SDS011;3877;42.562;27.636;2023-01-15T07:44:38;17.60;;;12.20;;
7669;SDS011;3877;42.562;27.636;2023-01-15T07:47:37;16.07;;;10.60;;
7669;SDS011;3877;42.562;27.636;2023-01-15T07:50:22;17.13;;;11.57;;
7669;SDS011;3877;42.562;27.636;2023-01-15T07:52:49;17.90;;;11.60;;
7669;SDS011;3877;42.562;27.636;2023-01-15T07:55:16;14.67;;;10.73;;
7669;SDS011;3877;42.562;27.636;2023-01-15T07:57:43;15.50;;;11.37;;
7669;SDS011;3877;42.562;27.636;2023-01-15T08:00:12;14.97;;;10.90;;
7669;SDS011;3877;42.562;27.636;2023-01-15T08:02:40;14.80;;;10.53;;
7669;SDS011;3877;42.562;27.636;2023-01-15T08:05:07;16.33;;;11.67;;
7669;SDS011;3877;42.562;27.636;2023-01-15T08:07:35;20.77;;;13.47;;
7669;SDS011;3877;42.562;27.636;2023-01-15T08:10:02;17.10;;;12.07;;
7669;SDS011;3877;42.562;27.636;2023-01-15T08:12:29;16.77;;;11.33;;
7669;SDS011;3877;42.562;27.636;2023-01-15T08:15:15;14.93;;;10.17;;
7669;SDS011;3877;42.562;27.636;2023-01-15T08:17:42;14.40;;;9.97;;
7669;SDS011;3877;42.562;27.636;2023-01-15T08:20:10;10.83;;;8.50;;
7669;SDS011;3877;42.562;27.636;2023-01-15T08:22:38;10.80;;;7.73;;
7669;SDS011;3877;42.562;27.636;2023-01-15T08:25:05;12.00;;;7.53;;
7669;SDS011;3877;42.562;27.636;2023-01-15T08:27:33;11.60;;;7.57;;
7669;SDS011;3877;42.562;27.636;2023-01-15T08:30:00;12.17;;;7.83;;
7669;SDS011;3877;42.562;27.636;2023-01-15T08:32:28;11.53;;;7.30;;
7669;SDS011;3877;42.562;27.636;2023-01-15T08:34:55;10.43;;;7.20;;
7669;SDS011;3877;42.562;27.636;2023-01-15T08:37:22;10.83;;;8.07;;
7669;SDS011;3877;42.562;27.636;2023-01-15T08:39:49;11.23;;;7.77;;
7669;SDS011;3877;42.562;27.636;2023-01-15T08:42:17;9.53;;;7.80;;
7669;SDS011;3877;42.562;27.636;2023-01-15T08:44:44;10.07;;;7.60;;
7669;SDS011;3877;42.562;27.636;2023-01-15T08:47:10;9.80;;;7.03;;
7669;SDS011;3877;42.562;27.636;2023-01-15T08:49:39;10.10;;;7.63;;
7669;SDS011;3877;42.562;27.636;2023-01-15T08:52:06;11.63;;;8.00;;
7669;SDS011;3877;42.562;27.636;2023-01-15T08:54:33;10.27;;;7.20;;
7669;SDS011;3877;42.562;27.636;2023-01-15T08:57:00;8.83;;;6.83;;
7669;SDS011;3877;42.562;27.636;2023-01-15T08:59:27;10.67;;;7.40;;
7669;SDS011;3877;42.562;27.636;2023-01-15T09:01:54;9.00;;;6.77;;
7669;SDS011;3877;42.562;27.636;2023-01-15T09:04:20;9.13;;;6.70;;
7669;SDS011;3877;42.562;27.636;2023-01-15T09:06:49;12.77;;;7.53;;
7669;SDS011;3877;42.562;27.636;2023-01-15T09:09:16;9.93;;;6.27;;
7669;SDS011;3877;42.562;27.636;2023-01-15T09:11:43;8.47;;;6.20;;
7669;SDS011;3877;42.562;27.636;2023-01-15T09:14:10;8.57;;;6.03;;
7669;SDS011;3877;42.562;27.636;2023-01-15T09:16:37;7.87;;;5.87;;
7669;SDS011;3877;42.562;27.636;2023-01-15T09:19:04;8.83;;;5.67;;
7669;SDS011;3877;42.562;27.636;2023-01-15T09:21:32;9.10;;;5.57;;
7669;SDS011;3877;42.562;27.636;2023-01-15T09:24:00;7.80;;;5.73;;
7669;SDS011;3877;42.562;27.636;2023-01-15T09:26:28;7.53;;;5.53;;
7669;SDS011;3877;42.562;27.636;2023-01-15T09:28:55;9.90;;;6.30;;
7669;SDS011;3877;42.562;27.636;2023-01-15T09:31:22;10.40;;;6.67;;
7669;SDS011;3877;42.562;27.636;2023-01-15T09:33:49;7.63;;;5.57;;
7669;SDS011;3877;42.562;27.636;2023-01-15T09:36:16;9.10;;;6.23;;
7669;SDS011;3877;42.562;27.636;2023-01-15T09:38:44;8.43;;;6.33;;
7669;SDS011;3877;42.562;27.636;2023-01-15T09:41:12;9.33;;;6.33;;
7669;SDS011;3877;42.562;27.636;2023-01-15T09:43:54;8.43;;;6.60;;
7669;SDS011;3877;42.562;27.636;2023-01-15T09:46:26;10.47;;;7.10;;
7669;SDS011;3877;42.562;27.636;2023-01-15T09:48:56;8.57;;;6.03;;
7669;SDS011;3877;42.562;27.636;2023-01-15T09:51:30;7.73;;;6.07;;
7669;SDS011;3877;42.562;27.636;2023-01-15T09:54:05;9.13;;;6.33;;
7669;SDS011;3877;42.562;27.636;2023-01-15T09:56:38;9.13;;;6.13;;
7669;SDS011;3877;42.562;27.636;2023-01-15T09:59:08;11.10;;;6.77;;
7669;SDS011;3877;42.562;27.636;2023-01-15T10:01:40;10.20;;;6.17;;
7669;SDS011;3877;42.562;27.636;2023-01-15T10:04:10;10.17;;;6.70;;
7669;SDS011;3877;42.562;27.636;2023-01-15T10:06:41;9.27;;;6.43;;
7669;SDS011;3877;42.562;27.636;2023-01-15T10:09:11;8.60;;;6.17;;
7669;SDS011;3877;42.562;27.636;2023-01-15T10:11:43;11.93;;;7.03;;
7669;SDS011;3877;42.562;27.636;2023-01-15T10:14:33;12.00;;;7.50;;
7669;SDS011;3877;42.562;27.636;2023-01-15T10:17:04;10.80;;;6.37;;
7669;SDS011;3877;42.562;27.636;2023-01-15T10:19:31;10.33;;;7.00;;
7669;SDS011;3877;42.562;27.636;2023-01-15T10:21:59;11.53;;;6.40;;
7669;SDS011;3877;42.562;27.636;2023-01-15T10:24:29;10.67;;;6.60;;
7669;SDS011;3877;42.562;27.636;2023-01-15T10:27:01;10.20;;;6.63;;
7669;SDS011;3877;42.562;27.636;2023-01-15T10:29:31;11.27;;;6.97;;
7669;SDS011;3877;42.562;27.636;2023-01-15T10:32:00;9.13;;;6.57;;
7669;SDS011;3877;42.562;27.636;2023-01-15T10:37:16;9.70;;;6.20;;
7669;SDS011;3877;42.562;27.636;2023-01-15T10:39:46;11.60;;;6.53;;
7669;SDS011;3877;42.562;27.636;2023-01-15T10:42:19;9.90;;;7.37;;
7669;SDS011;3877;42.562;27.636;2023-01-15T10:44:50;8.67;;;6.50;;
7669;SDS011;3877;42.562;27.636;2023-01-15T10:47:22;11.73;;;7.17;;
7669;SDS011;3877;42.562;27.636;2023-01-15T10:49:51;11.20;;;7.77;;
7669;SDS011;3877;42.562;27.636;2023-01-15T10:52:22;13.13;;;8.60;;
7669;SDS011;3877;42.562;27.636;2023-01-15T10:54:51;10.57;;;7.70;;
7669;SDS011;3877;42.562;27.636;2023-01-15T10:57:22;10.50;;;7.60;;
7669;SDS011;3877;42.562;27.636;2023-01-15T10:59:55;10.97;;;7.80;;
7669;SDS011;3877;42.562;27.636;2023-01-15T11:02:24;11.23;;;7.67;;
7669;SDS011;3877;42.562;27.636;2023-01-15T11:04:51;10.80;;;7.37;;
7669;SDS011;3877;42.562;27.636;2023-01-15T11:07:18;11.27;;;7.77;;
7669;SDS011;3877;42.562;27.636;2023-01-15T11:09:46;11.47;;;8.60;;
7669;SDS011;3877;42.562;27.636;2023-01-15T11:12:19;13.70;;;9.70;;
7669;SDS011;3877;42.562;27.636;2023-01-15T11:15:13;12.80;;;8.40;;
7669;SDS011;3877;42.562;27.636;2023-01-15T11:17:59;14.13;;;9.77;;
7669;SDS011;3877;42.562;27.636;2023-01-15T11:20:45;23.60;;;9.90;;
7669;SDS011;3877;42.562;27.636;2023-01-15T11:23:13;14.30;;;9.73;;
7669;SDS011;3877;42.562;27.636;2023-01-15T11:25:46;15.53;;;10.07;;
7669;SDS011;3877;42.562;27.636;2023-01-15T11:28:13;14.03;;;10.07;;
7669;SDS011;3877;42.562;27.636;2023-01-15T11:30:51;18.50;;;13.10;;
7669;SDS011;3877;42.562;27.636;2023-01-15T11:33:22;27.30;;;19.13;;
7669;SDS011;3877;42.562;27.636;2023-01-15T11:35:49;28.33;;;18.57;;
7669;SDS011;3877;42.562;27.636;2023-01-15T11:38:16;21.93;;;13.47;;
7669;SDS011;3877;42.562;27.636;2023-01-15T11:40:50;26.30;;;12.87;;
7669;SDS011;3877;42.562;27.636;2023-01-15T11:43:18;22.77;;;11.40;;
7669;SDS011;3877;42.562;27.636;2023-01-15T11:46:04;16.87;;;10.83;;
7669;SDS011;3877;42.562;27.636;2023-01-15T11:48:48;16.80;;;11.07;;
7669;SDS011;3877;42.562;27.636;2023-01-15T11:51:33;15.10;;;11.17;;
7669;SDS011;3877;42.562;27.636;2023-01-15T11:54:03;16.07;;;11.43;;
7669;SDS011;3877;42.562;27.636;2023-01-15T11:56:33;16.20;;;11.13;;
7669;SDS011;3877;42.562;27.636;2023-01-15T11:59:01;14.70;;;10.27;;
7669;SDS011;3877;42.562;27.636;2023-01-15T12:01:30;16.43;;;10.97;;
7669;SDS011;3877;42.562;27.636;2023-01-15T12:03:59;39.53;;;26.67;;
7669;SDS011;3877;42.562;27.636;2023-01-15T12:06:26;30.20;;;19.67;;
7669;SDS011;3877;42.562;27.636;2023-01-15T12:08:54;17.20;;;12.00;;
7669;SDS011;3877;42.562;27.636;2023-01-15T12:11:38;20.37;;;12.47;;
7669;SDS011;3877;42.562;27.636;2023-01-15T12:14:10;19.93;;;13.27;;
7669;SDS011;3877;42.562;27.636;2023-01-15T12:16:46;21.40;;;17.73;;
7669;SDS011;3877;42.562;27.636;2023-01-15T12:19:15;27.90;;;15.17;;
7669;SDS011;3877;42.562;27.636;2023-01-15T12:21:56;17.60;;;12.00;;
7669;SDS011;3877;42.562;27.636;2023-01-15T12:24:36;21.77;;;12.60;;
7669;SDS011;3877;42.562;27.636;2023-01-15T12:27:09;14.03;;;9.57;;
7669;SDS011;3877;42.562;27.636;2023-01-15T12:29:39;13.00;;;9.20;;
7669;SDS011;3877;42.562;27.636;2023-01-15T12:32:12;13.07;;;8.83;;
7669;SDS011;3877;42.562;27.636;2023-01-15T12:34:43;13.33;;;9.43;;
7669;SDS011;3877;42.562;27.636;2023-01-15T12:37:12;13.17;;;9.70;;
7669;SDS011;3877;42.562;27.636;2023-01-15T12:39:45;19.33;;;11.47;;
7669;SDS011;3877;42.562;27.636;2023-01-15T12:42:14;18.47;;;9.70;;
7669;SDS011;3877;42.562;27.636;2023-01-15T12:45:00;22.77;;;15.57;;
7669;SDS011;3877;42.562;27.636;2023-01-15T12:47:32;16.33;;;11.63;;
7669;SDS011;3877;42.562;27.636;2023-01-15T12:50:02;14.70;;;9.50;;
7669;SDS011;3877;42.562;27.636;2023-01-15T12:52:33;13.43;;;8.73;;
7669;SDS011;3877;42.562;27.636;2023-01-15T12:55:03;14.90;;;10.17;;
7669;SDS011;3877;42.562;27.636;2023-01-15T12:57:33;14.63;;;10.00;;
7669;SDS011;3877;42.562;27.636;2023-01-15T13:00:02;16.00;;;9.60;;
7669;SDS011;3877;42.562;27.636;2023-01-15T13:02:34;12.83;;;9.40;;
7669;SDS011;3877;42.562;27.636;2023-01-15T13:05:07;19.17;;;11.90;;
7669;SDS011;3877;42.562;27.636;2023-01-15T13:07:39;19.80;;;12.60;;
7669;SDS011;3877;42.562;27.636;2023-01-15T13:10:09;27.00;;;16.37;;
7669;SDS011;3877;42.562;27.636;2023-01-15T13:12:40;20.87;;;12.90;;
7669;SDS011;3877;42.562;27.636;2023-01-15T13:15:10;11.33;;;8.43;;
7669;SDS011;3877;42.562;27.636;2023-01-15T13:17:42;14.80;;;9.43;;
7669;SDS011;3877;42.562;27.636;2023-01-15T13:20:14;13.13;;;8.87;;
7669;SDS011;3877;42.562;27.636;2023-01-15T13:22:46;60.10;;;40.67;;
7669;SDS011;3877;42.562;27.636;2023-01-15T13:25:26;19.93;;;14.37;;
7669;SDS011;3877;42.562;27.636;2023-01-15T13:27:58;25.40;;;16.33;;
7669;SDS011;3877;42.562;27.636;2023-01-15T13:30:31;32.57;;;19.90;;
7669;SDS011;3877;42.562;27.636;2023-01-15T13:33:06;17.07;;;11.23;;
7669;SDS011;3877;42.562;27.636;2023-01-15T13:35:39;14.83;;;8.80;;
7669;SDS011;3877;42.562;27.636;2023-01-15T13:38:10;14.40;;;9.30;;
7669;SDS011;3877;42.562;27.636;2023-01-15T13:40:42;31.87;;;20.57;;
7669;SDS011;3877;42.562;27.636;2023-01-15T13:43:20;36.90;;;20.83;;
7669;SDS011;3877;42.562;27.636;2023-01-15T13:45:49;47.10;;;25.43;;
7669;SDS011;3877;42.562;27.636;2023-01-15T13:48:18;46.53;;;23.27;;
7669;SDS011;3877;42.562;27.636;2023-01-15T13:50:50;26.90;;;12.53;;
7669;SDS011;3877;42.562;27.636;2023-01-15T13:53:20;10.50;;;7.27;;
7669;SDS011;3877;42.562;27.636;2023-01-15T13:55:49;9.27;;;6.90;;
7669;SDS011;3877;42.562;27.636;2023-01-15T13:58:22;10.20;;;7.20;;
7669;SDS011;3877;42.562;27.636;2023-01-15T14:00:59;11.10;;;7.50;;
7669;SDS011;3877;42.562;27.636;2023-01-15T14:03:29;11.63;;;7.63;;
7669;SDS011;3877;42.562;27.636;2023-01-15T14:05:56;11.33;;;8.30;;
7669;SDS011;3877;42.562;27.636;2023-01-15T14:08:24;35.23;;;21.63;;
7669;SDS011;3877;42.562;27.636;2023-01-15T14:10:52;34.67;;;18.57;;
7669;SDS011;3877;42.562;27.636;2023-01-15T14:16:26;23.17;;;15.67;;
7669;SDS011;3877;42.562;27.636;2023-01-15T14:19:02;26.23;;;17.10;;
7669;SDS011;3877;42.562;27.636;2023-01-15T14:21:36;20.83;;;13.23;;
7669;SDS011;3877;42.562;27.636;2023-01-15T14:26:49;21.00;;;14.40;;
7669;SDS011;3877;42.562;27.636;2023-01-15T14:29:25;54.63;;;30.90;;
7669;SDS011;3877;42.562;27.636;2023-01-15T14:32:00;49.50;;;27.00;;
7669;SDS011;3877;42.562;27.636;2023-01-15T14:34:31;53.47;;;25.10;;
7669;SDS011;3877;42.562;27.636;2023-01-15T14:36:59;56.53;;;29.00;;
7669;SDS011;3877;42.562;27.636;2023-01-15T14:39:32;19.10;;;11.43;;
7669;SDS011;3877;42.562;27.636;2023-01-15T14:42:04;19.43;;;11.27;;
7669;SDS011;3877;42.562;27.636;2023-01-15T14:44:54;31.00;;;15.93;;
7669;SDS011;3877;42.562;27.636;2023-01-15T14:47:25;13.83;;;7.63;;
7669;SDS011;3877;42.562;27.636;2023-01-15T14:52:35;11.33;;;8.07;;
7669;SDS011;3877;42.562;27.636;2023-01-15T14:55:03;39.50;;;20.47;;
7669;SDS011;3877;42.562;27.636;2023-01-15T14:57:35;19.70;;;11.87;;
7669;SDS011;3877;42.562;27.636;2023-01-15T15:00:03;16.13;;;10.30;;
7669;SDS011;3877;42.562;27.636;2023-01-15T15:02:32;16.70;;;9.30;;
7669;SDS011;3877;42.562;27.636;2023-01-15T15:05:00;25.97;;;14.70;;
7669;SDS011;3877;42.562;27.636;2023-01-15T15:07:29;15.53;;;10.10;;